createdAt,value
2019-02-18T00:01:48.765Z,101832.42
2019-02-18T00:04:18.701Z,101841.20
2019-02-18T00:06:48.429Z,101836.87
2019-02-18T00:09:18.243Z,101835.23
2019-02-18T00:11:48.824Z,101834.34
2019-02-18T00:14:18.528Z,101840.48
2019-02-18T00:16:48.112Z,101842.22
2019-02-18T00:19:18.078Z,101838.34
2019-02-18T00:21:47.917Z,101829.20
2019-02-18T00:24:17.530Z,101825.34
2019-02-18T00:26:48.935Z,101824.94
2019-02-18T00:29:18.479Z,101830.14
2019-02-18T00:31:48.079Z,101834.00
2019-02-18T00:34:17.952Z,101834.00
2019-02-18T00:36:47.698Z,101823.95
2019-02-18T00:39:17.448Z,101815.23
2019-02-18T00:41:49.273Z,101813.53
2019-02-18T00:44:19.018Z,101818.02
2019-02-18T00:46:48.761Z,101824.98
2019-02-18T00:49:18.512Z,101824.98
2019-02-18T00:51:48.378Z,101811.82
2019-02-18T00:54:18.173Z,101814.08
2019-02-18T00:56:47.828Z,101814.52
2019-02-18T00:59:17.726Z,101811.97
2019-02-18T01:01:47.402Z,101800.56
2019-02-18T01:04:17.052Z,101807.07
2019-02-18T01:06:46.987Z,101804.90
2019-02-18T01:09:16.565Z,101801.33
2019-02-18T01:11:46.110Z,101803.05
2019-02-18T01:14:15.985Z,101669.39
2019-02-18T01:16:45.591Z,101799.69
2019-02-18T01:19:15.415Z,101783.12
2019-02-18T01:21:45.222Z,101784.90
2019-02-18T01:24:15.466Z,101781.33
2019-02-18T01:26:45.145Z,101781.33
2019-02-18T01:29:14.920Z,101769.16
2019-02-18T01:31:44.531Z,101770.84
2019-02-18T01:34:14.235Z,101772.61
2019-02-18T01:36:44.063Z,101770.84
2019-02-18T01:39:13.975Z,101761.33
2019-02-18T01:41:43.742Z,101753.46
2019-02-18T01:44:13.583Z,101753.46
2019-02-18T01:46:43.148Z,101751.17
2019-02-18T01:49:15.841Z,101750.66
2019-02-18T01:51:45.582Z,101738.73
2019-02-18T01:54:15.562Z,101736.44
2019-02-18T01:56:45.338Z,101729.02
2019-02-18T01:59:15.047Z,101717.16
2019-02-18T02:01:44.723Z,101722.27
2019-02-18T02:04:14.786Z,101721.33
2019-02-18T02:06:44.437Z,101716.02
2019-02-18T02:09:15.847Z,101713.41
2019-02-18T02:11:45.456Z,101712.48
2019-02-18T02:14:15.083Z,101700.12
2019-02-18T02:16:44.857Z,101697.13
2019-02-18T02:19:14.698Z,101699.20
2019-02-18T02:21:44.264Z,101689.55
2019-02-18T02:24:14.575Z,101677.80
2019-02-18T02:26:44.191Z,101678.29
2019-02-18T02:29:14.113Z,101671.69
2019-02-18T02:31:44.108Z,101675.62
2019-02-18T02:34:13.746Z,101678.71
2019-02-18T02:36:43.722Z,101670.38
2019-02-18T02:39:14.562Z,101665.06
2019-02-18T02:41:44.365Z,101672.92
2019-02-18T02:44:14.063Z,101661.61
2019-02-18T02:46:43.830Z,101663.39
2019-02-18T02:49:13.402Z,101658.98
2019-02-18T02:51:42.972Z,101652.83
2019-02-18T02:54:12.980Z,101652.77
2019-02-18T02:56:43.066Z,101644.91
2019-02-18T02:59:12.691Z,101642.21
2019-02-18T03:01:42.462Z,101636.47
2019-02-18T03:04:12.050Z,101635.99
2019-02-18T03:06:43.085Z,101638.17
2019-02-18T03:09:12.764Z,101632.47
2019-02-18T03:11:42.590Z,101623.22
2019-02-18T03:14:12.263Z,101619.30
2019-02-18T03:16:41.878Z,101621.00
2019-02-18T03:19:11.735Z,101617.48
2019-02-18T03:21:41.381Z,101606.92
2019-02-18T03:24:11.220Z,101606.82
2019-02-18T03:26:40.949Z,101606.82
2019-02-18T03:29:38.935Z,101615.52
2019-02-18T03:32:08.335Z,101615.92
2019-02-18T03:34:45.989Z,101605.77
2019-02-18T03:37:15.675Z,101608.39
2019-02-18T03:39:45.245Z,101596.53
2019-02-18T03:42:15.181Z,101590.39
2019-02-18T03:44:45.155Z,101594.82
2019-02-18T03:47:14.813Z,101579.51
2019-02-18T03:49:44.349Z,101579.52
2019-02-18T03:52:14.085Z,101567.22
2019-02-18T03:54:43.841Z,101571.98
2019-02-18T03:57:13.661Z,101567.07
2019-02-18T03:59:44.018Z,101568.78
2019-02-18T04:02:13.668Z,101554.70
2019-02-18T04:04:43.550Z,101554.78
2019-02-18T04:07:16.394Z,101554.31
2019-02-18T04:09:46.005Z,101551.69
2019-02-18T04:12:15.837Z,101549.45
2019-02-18T04:14:45.553Z,101556.02
2019-02-18T04:17:15.248Z,101557.31
2019-02-18T04:19:44.879Z,101543.19
2019-02-18T04:22:14.575Z,101550.12
2019-02-18T04:24:44.292Z,101555.34
2019-02-18T04:27:14.135Z,101548.31
2019-02-18T04:29:43.880Z,101549.07
2019-02-18T04:32:19.617Z,101553.47
2019-02-18T04:34:49.333Z,101554.31
2019-02-18T04:37:18.991Z,101550.78
2019-02-18T04:39:48.803Z,101548.16
2019-02-18T04:42:19.742Z,101390.45
2019-02-18T04:44:49.331Z,101543.25
2019-02-18T04:47:19.108Z,101535.78
2019-02-18T04:49:48.779Z,101534.00
2019-02-18T04:52:18.397Z,101537.03
2019-02-18T04:54:48.187Z,101528.75
2019-02-18T04:57:17.931Z,101531.36
2019-02-18T04:59:47.649Z,101517.23
2019-02-18T05:02:17.410Z,101517.23
2019-02-18T05:04:47.146Z,101515.50
2019-02-18T05:07:16.724Z,101520.67
2019-02-18T05:09:46.532Z,101514.45
2019-02-18T05:12:16.303Z,101514.45
2019-02-18T05:14:45.991Z,101507.98
2019-02-18T05:17:15.650Z,101512.39
2019-02-18T05:19:45.596Z,101510.02
2019-02-18T05:22:15.239Z,101510.02
2019-02-18T05:24:45.035Z,101504.70
2019-02-18T05:27:14.807Z,101499.89
2019-02-18T05:29:44.527Z,101495.95
2019-02-18T05:32:14.197Z,101491.53
2019-02-18T05:34:43.997Z,101488.89
2019-02-18T05:37:13.999Z,101477.00
2019-02-18T05:39:43.604Z,101470.44
2019-02-18T05:42:13.381Z,101462.57
2019-02-18T05:44:43.293Z,101449.91
2019-02-18T05:47:12.979Z,101449.91
2019-02-18T05:49:42.797Z,101443.70
2019-02-18T05:52:12.585Z,101447.55
2019-02-18T05:54:42.299Z,101445.40
2019-02-18T05:57:12.235Z,101440.93
2019-02-18T05:59:41.887Z,101433.48
2019-02-18T06:02:11.435Z,101428.97
2019-02-18T06:04:41.266Z,101435.51
2019-02-18T06:07:10.971Z,101433.22
2019-02-18T06:09:40.692Z,101437.03
2019-02-18T06:12:10.475Z,101444.30
2019-02-18T06:14:40.423Z,101455.59
2019-02-18T06:17:10.074Z,101450.32
2019-02-18T06:19:39.890Z,101335.17
2019-02-18T06:22:09.777Z,101335.17
2019-02-18T06:24:39.506Z,101451.34
2019-02-18T06:27:09.634Z,101460.41
2019-02-18T06:29:39.263Z,101452.48
2019-02-18T06:32:08.880Z,101452.48
2019-02-18T06:34:38.800Z,101455.98
2019-02-18T06:37:08.387Z,101461.94
2019-02-18T06:39:41.764Z,101465.38
2019-02-18T06:42:11.214Z,101473.61
2019-02-18T06:44:49.953Z,101475.28
2019-02-18T06:47:25.609Z,101477.14
2019-02-18T06:49:55.210Z,101478.09
2019-02-18T06:52:24.918Z,101472.30
2019-02-18T06:54:54.759Z,101472.62
2019-02-18T06:57:29.282Z,101476.95
2019-02-18T07:00:01.544Z,101452.33
2019-02-18T07:02:43.348Z,101452.33
2019-02-18T07:05:41.035Z,101452.33
2019-02-18T07:08:35.482Z,101452.33
2019-02-18T07:11:24.330Z,101460.64
2019-02-18T07:13:53.960Z,101460.64
2019-02-18T07:16:23.655Z,101464.25
2019-02-18T07:18:53.675Z,101472.53
2019-02-18T07:21:23.272Z,101472.17
2019-02-18T07:23:52.838Z,101477.53
2019-02-18T07:26:22.697Z,101494.63
2019-02-18T07:28:52.417Z,101501.80
2019-02-18T07:31:22.230Z,101527.56
2019-02-18T07:33:52.107Z,101537.33
2019-02-18T07:36:21.806Z,101537.58
2019-02-18T07:38:51.515Z,101532.57
2019-02-18T07:41:21.526Z,101532.77
2019-02-18T07:43:51.188Z,101531.18
2019-02-18T07:46:21.029Z,101521.51
2019-02-18T07:48:50.857Z,101524.95
2019-02-18T07:51:20.551Z,101516.11
2019-02-18T07:53:50.292Z,101519.20
2019-02-18T07:56:20.324Z,101521.00
2019-02-18T07:58:50.093Z,101521.00
2019-02-18T08:01:19.820Z,101529.88
2019-02-18T08:03:49.911Z,101530.85
2019-02-18T08:06:19.665Z,101528.87
2019-02-18T08:08:50.128Z,101523.64
2019-02-18T08:11:20.018Z,101523.17
2019-02-18T08:13:49.731Z,101519.45
2019-02-18T08:16:19.463Z,101515.20
2019-02-18T08:18:49.426Z,101495.13
2019-02-18T08:21:19.248Z,101495.13
2019-02-18T08:23:48.874Z,101490.16
2019-02-18T08:26:18.683Z,101490.16
2019-02-18T08:28:48.405Z,101501.96
2019-02-18T08:31:18.190Z,101499.34
2019-02-18T08:33:48.197Z,101487.16
2019-02-18T08:36:18.089Z,101486.15
2019-02-18T08:38:47.831Z,101480.42
2019-02-18T08:41:17.928Z,101481.83
2019-02-18T08:43:47.640Z,101485.45
2019-02-18T08:46:17.443Z,101476.47
2019-02-18T08:48:47.415Z,101474.86
2019-02-18T08:51:17.348Z,101474.86
2019-02-18T08:53:47.942Z,101465.55
2019-02-18T08:56:17.902Z,101461.16
2019-02-18T08:58:47.699Z,101463.15
2019-02-18T09:01:17.481Z,101457.09
2019-02-18T09:03:47.279Z,101466.91
2019-02-18T09:06:17.201Z,101453.14
2019-02-18T09:08:46.951Z,101453.14
2019-02-18T09:11:17.318Z,101440.14
2019-02-18T09:13:46.955Z,101430.45
2019-02-18T09:16:16.548Z,101432.40
2019-02-18T09:18:46.546Z,101442.88
2019-02-18T09:21:16.505Z,101442.36
2019-02-18T09:23:57.944Z,101423.16
2019-02-18T09:26:27.890Z,101417.53
2019-02-18T09:28:57.672Z,101407.91
2019-02-18T09:31:30.272Z,101405.29
2019-02-18T09:34:00.228Z,101394.91
2019-02-18T09:36:30.452Z,101382.89
2019-02-18T09:39:00.777Z,101380.39
2019-02-18T09:41:30.691Z,101376.95
2019-02-18T09:44:00.411Z,101369.08
2019-02-18T09:46:30.808Z,101375.30
2019-02-18T09:49:00.718Z,101377.19
2019-02-18T09:51:30.502Z,101372.02
2019-02-18T09:54:00.613Z,101383.97
2019-02-18T09:56:30.419Z,101376.70
2019-02-18T09:59:00.480Z,101372.75
2019-02-18T10:01:30.709Z,101372.75
2019-02-18T10:04:00.478Z,101373.87
2019-02-18T10:06:30.667Z,101373.87
2019-02-18T10:09:00.817Z,101373.34
2019-02-18T10:11:30.515Z,101376.94
2019-02-18T10:14:00.363Z,101371.69
2019-02-18T10:16:30.581Z,101373.46
2019-02-18T10:19:00.592Z,101365.98
2019-02-18T10:21:30.645Z,101370.16
2019-02-18T10:24:00.958Z,101377.82
2019-02-18T10:26:30.861Z,101369.66
2019-02-18T10:29:00.756Z,101367.84
2019-02-18T10:31:30.881Z,101361.99
2019-02-18T10:34:00.660Z,101357.77
2019-02-18T10:36:30.820Z,101353.16
2019-02-18T10:39:00.410Z,101354.20
2019-02-18T10:41:30.430Z,101353.97
2019-02-18T10:44:00.438Z,101355.78
2019-02-18T10:46:33.001Z,101353.10
2019-02-18T10:49:03.109Z,101351.38
2019-02-18T10:51:32.963Z,101358.66
2019-02-18T10:54:02.626Z,101365.90
2019-02-18T10:56:32.932Z,101373.45
2019-02-18T10:59:02.807Z,101372.92
2019-02-18T11:01:32.592Z,101369.00
2019-02-18T11:04:02.509Z,101356.23
2019-02-18T11:06:32.502Z,101359.66
2019-02-18T11:09:02.265Z,101347.42
2019-02-18T11:11:32.023Z,101366.02
2019-02-18T11:14:01.884Z,101350.75
2019-02-18T11:16:31.814Z,101356.26
2019-02-18T11:19:01.635Z,101361.70
2019-02-18T11:21:31.726Z,101351.11
2019-02-18T11:24:01.572Z,101348.38
2019-02-18T11:26:31.567Z,101345.02
2019-02-18T11:29:01.943Z,101345.19
2019-02-18T11:31:31.773Z,101353.16
2019-02-18T11:34:01.460Z,101354.36
2019-02-18T11:36:31.716Z,101350.16
2019-02-18T11:39:01.425Z,101350.70
2019-02-18T11:41:31.330Z,101342.39
2019-02-18T11:44:01.839Z,101343.70
2019-02-18T11:46:31.612Z,101340.25
2019-02-18T11:49:01.813Z,101332.28
2019-02-18T11:51:31.860Z,101324.83
2019-02-18T11:54:01.763Z,101324.04
2019-02-18T11:56:31.563Z,101324.04
2019-02-18T11:59:01.679Z,101308.01
2019-02-18T12:01:31.621Z,101317.19
2019-02-18T12:04:01.584Z,101322.05
2019-02-18T12:06:31.787Z,101324.68
2019-02-18T12:09:01.710Z,101322.81
2019-02-18T12:11:38.079Z,101323.75
2019-02-18T12:14:03.655Z,101324.73
2019-02-18T12:16:33.440Z,101323.97
2019-02-18T12:19:03.260Z,101310.00
2019-02-18T12:21:32.985Z,101311.61
2019-02-18T12:24:02.853Z,101306.31
2019-02-18T12:26:32.819Z,101306.73
2019-02-18T12:29:02.891Z,101305.47
2019-02-18T12:31:32.744Z,101293.28
2019-02-18T12:34:02.432Z,101294.93
2019-02-18T12:36:32.580Z,101297.22
2019-02-18T12:39:02.584Z,101302.51
2019-02-18T12:41:32.367Z,101294.98
2019-02-18T12:44:02.107Z,101292.31
2019-02-18T12:46:31.986Z,101289.81
2019-02-18T12:49:01.967Z,101291.04
2019-02-18T12:51:31.945Z,101287.98
2019-02-18T12:54:04.952Z,101287.69
2019-02-18T12:56:33.261Z,101291.66
2019-02-18T12:59:03.073Z,101288.50
2019-02-18T13:01:32.939Z,101284.39
2019-02-18T13:04:02.727Z,101283.42
2019-02-18T13:06:32.707Z,101280.75
2019-02-18T13:09:02.343Z,101270.20
2019-02-18T13:11:32.564Z,101272.83
2019-02-18T13:14:02.533Z,101270.63
2019-02-18T13:16:32.427Z,101270.91
2019-02-18T13:19:02.191Z,101278.73
2019-02-18T13:21:32.014Z,101270.02
2019-02-18T13:24:01.882Z,101274.89
2019-02-18T13:26:31.913Z,101275.36
2019-02-18T13:29:01.853Z,101273.63
2019-02-18T13:31:31.551Z,101272.74
2019-02-18T13:34:01.679Z,101252.38
2019-02-18T13:36:31.649Z,101261.81
2019-02-18T13:39:01.836Z,101265.22
2019-02-18T13:41:31.845Z,101267.42
2019-02-18T13:44:01.493Z,101257.47
2019-02-18T13:46:31.575Z,101257.47
2019-02-18T13:49:01.853Z,101254.01
2019-02-18T13:51:31.677Z,101250.45
2019-02-18T13:54:01.416Z,101252.16
2019-02-18T13:56:32.091Z,101260.87
2019-02-18T13:59:02.051Z,101252.86
2019-02-18T14:01:32.067Z,101255.95
2019-02-18T14:04:02.027Z,101251.09
2019-02-18T14:06:31.837Z,101252.44
2019-02-18T14:09:01.729Z,101103.82
2019-02-18T14:11:32.081Z,101103.82
2019-02-18T14:14:02.580Z,101247.36
2019-02-18T14:16:32.437Z,101260.46
2019-02-18T14:19:02.422Z,101250.87
2019-02-18T14:21:34.440Z,101262.25
2019-02-18T14:24:04.629Z,101262.25
2019-02-18T14:26:34.636Z,101255.80
2019-02-18T14:29:04.626Z,101253.19
2019-02-18T14:31:34.483Z,101241.44
2019-02-18T14:34:04.247Z,101237.23
2019-02-18T14:36:33.969Z,101245.14
2019-02-18T14:39:05.330Z,101244.25
2019-02-18T14:41:35.100Z,101245.99
2019-02-18T14:44:05.147Z,101239.06
2019-02-18T14:46:35.942Z,101230.25
2019-02-18T14:49:05.830Z,101223.58
2019-02-18T14:51:35.900Z,101224.55
2019-02-18T14:54:06.041Z,101224.55
2019-02-18T14:56:36.290Z,101231.98
2019-02-18T14:59:06.276Z,101233.67
2019-02-18T15:01:36.292Z,101221.32
2019-02-18T15:04:06.411Z,101221.32
2019-02-18T15:06:36.587Z,101212.09
2019-02-18T15:09:07.242Z,101216.40
2019-02-18T15:11:37.474Z,101212.35
2019-02-18T15:14:07.195Z,101208.91
2019-02-18T15:16:36.961Z,101205.45
2019-02-18T15:19:06.779Z,101205.97
2019-02-18T15:21:36.450Z,101206.38
2019-02-18T15:24:06.466Z,101215.04
2019-02-18T15:26:36.372Z,101218.54
2019-02-18T15:29:06.303Z,101215.98
2019-02-18T15:31:36.708Z,101214.30
2019-02-18T15:34:06.724Z,101206.48
2019-02-18T15:36:36.384Z,101202.13
2019-02-18T15:39:07.322Z,101209.58
2019-02-18T15:41:37.337Z,101207.80
2019-02-18T15:44:06.979Z,101202.87
2019-02-18T15:46:36.814Z,101201.05
2019-02-18T15:49:07.064Z,101204.91
2019-02-18T15:51:36.825Z,101202.72
2019-02-18T15:54:06.750Z,101195.69
2019-02-18T15:56:36.562Z,101196.52
2019-02-18T15:59:08.936Z,101196.52
2019-02-18T16:01:39.166Z,101183.81
2019-02-18T16:04:09.136Z,101183.81
2019-02-18T16:06:38.933Z,101176.41
2019-02-18T16:09:08.944Z,101171.06
2019-02-18T16:11:39.059Z,101169.28
2019-02-18T16:14:08.787Z,101156.34
2019-02-18T16:16:39.055Z,101156.34
2019-02-18T16:19:09.171Z,101166.88
2019-02-18T16:21:39.088Z,101167.77
2019-02-18T16:24:19.338Z,101160.70
2019-02-18T16:26:40.728Z,101158.19
2019-02-18T16:29:10.445Z,101161.73
2019-02-18T16:31:40.424Z,101165.67
2019-02-18T16:34:11.594Z,101152.11
2019-02-18T16:36:41.475Z,101152.10
2019-02-18T16:39:11.875Z,101153.04
2019-02-18T16:41:41.440Z,101153.08
2019-02-18T16:44:11.066Z,101141.30
2019-02-18T16:46:40.895Z,101141.30
2019-02-18T16:49:10.958Z,101140.08
2019-02-18T16:51:40.656Z,101134.84
2019-02-18T16:54:10.630Z,101140.08
2019-02-18T16:56:40.246Z,101141.44
2019-02-18T16:59:10.155Z,101127.02
2019-02-18T17:01:40.354Z,101125.20
2019-02-18T17:04:10.137Z,101127.77
2019-02-18T17:06:39.797Z,101122.16
2019-02-18T17:09:14.084Z,101118.28
2019-02-18T17:11:43.739Z,101116.66
2019-02-18T17:14:13.653Z,101111.42
2019-02-18T17:16:43.984Z,101107.95
2019-02-18T17:19:16.245Z,101118.02
2019-02-18T17:21:48.576Z,101104.41
2019-02-18T17:24:19.107Z,101107.08
2019-02-18T17:26:49.043Z,101106.19
2019-02-18T17:29:18.873Z,101101.78
2019-02-18T17:31:48.933Z,101095.73
2019-02-18T17:34:18.825Z,101093.08
2019-02-18T17:36:48.623Z,101081.13
2019-02-18T17:39:18.969Z,101081.13
2019-02-18T17:41:48.947Z,101082.52
2019-02-18T17:44:20.412Z,101085.17
2019-02-18T17:46:50.285Z,101078.13
2019-02-18T17:49:19.860Z,101075.00
2019-02-18T17:51:49.733Z,101062.35
2019-02-18T17:54:19.644Z,101067.17
2019-02-18T17:56:49.399Z,101060.96
2019-02-18T17:59:19.242Z,101061.38
2019-02-18T18:01:49.262Z,101055.30
2019-02-18T18:04:18.966Z,101053.56
2019-02-18T18:06:48.697Z,101047.06
2019-02-18T18:09:18.559Z,101039.66
2019-02-18T18:11:48.211Z,101029.22
2019-02-18T18:14:17.906Z,101033.64
2019-02-18T18:16:47.732Z,101028.90
2019-02-18T18:19:17.547Z,101028.90
2019-02-18T18:21:47.647Z,101024.08
2019-02-18T18:24:17.711Z,101024.08
2019-02-18T18:26:47.506Z,101023.20
2019-02-18T18:29:18.467Z,101026.20
2019-02-18T18:31:48.414Z,100865.92
2019-02-18T18:34:18.326Z,101021.39
2019-02-18T18:36:48.774Z,101021.39
2019-02-18T18:39:18.726Z,101022.20
2019-02-18T18:41:48.624Z,101023.05
2019-02-18T18:44:18.863Z,101017.81
2019-02-18T18:46:48.690Z,101014.30
2019-02-18T18:49:18.513Z,101015.15
2019-02-18T18:51:48.436Z,101013.84
2019-02-18T18:54:18.191Z,101012.52
2019-02-18T18:56:47.908Z,101003.78
2019-02-18T18:59:17.796Z,101015.61
2019-02-18T19:01:47.769Z,101007.29
2019-02-18T19:04:17.690Z,101001.23
2019-02-18T19:06:47.658Z,101009.20
2019-02-18T19:09:17.826Z,101002.19
2019-02-18T19:11:47.705Z,101003.50
2019-02-18T19:14:17.645Z,101000.00
2019-02-18T19:16:47.982Z,100999.57
2019-02-18T19:19:17.709Z,100996.10
2019-02-18T19:21:48.269Z,100996.06
2019-02-18T19:24:18.170Z,100989.87
2019-02-18T19:26:47.966Z,100996.87
2019-02-18T19:29:17.903Z,100989.09
2019-02-18T19:31:48.048Z,100995.25
2019-02-18T19:34:17.843Z,100993.09
2019-02-18T19:36:48.255Z,101006.66
2019-02-18T19:39:17.863Z,100989.23
2019-02-18T19:41:47.595Z,100982.21
2019-02-18T19:44:17.616Z,100979.63
2019-02-18T19:46:47.583Z,100985.69
2019-02-18T19:49:17.367Z,100983.06
2019-02-18T19:51:47.319Z,100979.23
2019-02-18T19:54:17.050Z,100974.88
2019-02-18T19:56:47.069Z,100977.03
2019-02-18T19:59:18.021Z,100987.48
2019-02-18T20:01:48.161Z,100974.35
2019-02-18T20:04:18.764Z,100961.70
2019-02-18T20:06:49.255Z,100966.52
2019-02-18T20:09:18.809Z,100966.52
2019-02-18T20:11:49.140Z,100957.77
2019-02-18T20:14:23.075Z,100961.60
2019-02-18T20:16:53.132Z,100958.45
2019-02-18T20:19:25.641Z,100952.69
2019-02-18T20:21:55.871Z,100953.92
2019-02-18T20:24:25.830Z,100797.77
2019-02-18T20:26:55.729Z,100940.02
2019-02-18T20:29:25.809Z,100943.09
2019-02-18T20:31:56.227Z,100936.11
2019-02-18T20:34:26.772Z,100933.92
2019-02-18T20:36:57.391Z,100925.20
2019-02-18T20:39:27.293Z,100925.20
2019-02-18T20:41:57.188Z,100929.66
2019-02-18T20:44:27.324Z,100925.34
2019-02-18T20:46:58.477Z,100924.45
2019-02-18T20:49:29.178Z,100925.73
2019-02-18T20:51:59.325Z,100928.38
2019-02-18T20:54:29.224Z,100926.65
2019-02-18T20:56:59.697Z,100924.45
2019-02-18T20:59:30.330Z,100913.94
2019-02-18T21:02:00.547Z,100921.83
2019-02-18T21:04:31.976Z,100927.14
2019-02-18T21:07:02.734Z,100921.02
2019-02-18T21:09:32.570Z,100759.16
2019-02-18T21:12:02.346Z,100914.91
2019-02-18T21:14:32.379Z,100917.53
2019-02-18T21:17:02.834Z,100917.53
2019-02-18T21:19:33.349Z,100917.53
2019-02-18T21:22:03.544Z,100907.45
2019-02-18T21:24:40.844Z,100905.62
2019-02-18T21:27:11.036Z,100901.69
2019-02-18T21:29:41.348Z,100899.98
2019-02-18T21:32:11.854Z,100902.15
2019-02-18T21:34:42.137Z,100898.58
2019-02-18T21:37:12.364Z,100895.53
2019-02-18T21:39:42.213Z,100884.98
2019-02-18T21:42:12.153Z,100884.53
2019-02-18T21:44:42.085Z,100883.22
2019-02-18T21:47:12.258Z,100890.20
2019-02-18T21:49:42.294Z,100884.07
2019-02-18T21:52:12.715Z,100886.59
2019-02-18T21:54:42.816Z,100886.06
2019-02-18T21:57:13.120Z,100874.28
2019-02-18T21:59:42.902Z,100869.04
2019-02-18T22:02:13.042Z,100865.57
2019-02-18T22:04:43.022Z,100865.57
2019-02-18T22:07:12.916Z,100862.03
2019-02-18T22:09:43.068Z,100862.03
2019-02-18T22:12:15.523Z,100856.69
2019-02-18T22:14:45.449Z,100856.69
2019-02-18T22:17:15.421Z,100850.60
2019-02-18T22:19:45.513Z,100836.20
2019-02-18T22:22:15.388Z,100831.39
2019-02-18T22:24:46.439Z,100842.32
2019-02-18T22:27:16.187Z,100834.40
2019-02-18T22:29:45.899Z,100837.44
2019-02-18T22:32:15.863Z,100824.39
2019-02-18T22:34:45.567Z,100824.39
2019-02-18T22:37:15.321Z,100828.73
2019-02-18T22:39:45.420Z,100826.86
2019-02-18T22:42:15.576Z,100818.59
2019-02-18T22:44:45.439Z,100809.81
2019-02-18T22:47:15.392Z,100800.65
2019-02-18T22:49:45.020Z,100802.87
2019-02-18T22:52:14.615Z,100795.45
2019-02-18T22:54:44.505Z,100797.25
2019-02-18T22:57:14.364Z,100797.25
2019-02-18T22:59:44.075Z,100790.31
2019-02-18T23:02:14.586Z,100790.31
2019-02-18T23:04:44.491Z,100793.72
2019-02-18T23:07:14.115Z,100796.69
2019-02-18T23:09:44.760Z,100793.64
2019-02-18T23:12:14.573Z,100780.17
2019-02-18T23:14:50.248Z,100787.56
2019-02-18T23:17:15.839Z,100774.44
2019-02-18T23:19:45.501Z,100770.09
2019-02-18T23:22:15.138Z,100779.71
2019-02-18T23:24:45.210Z,100786.64
2019-02-18T23:27:14.915Z,100777.91
2019-02-18T23:29:44.616Z,100773.95
2019-02-18T23:32:14.641Z,100768.29
2019-02-18T23:34:44.495Z,100767.41
2019-02-18T23:37:14.225Z,100770.02
2019-02-18T23:39:44.060Z,100764.72
2019-02-18T23:42:13.932Z,100764.72
2019-02-18T23:44:43.737Z,100759.06
2019-02-18T23:47:13.656Z,100764.30
2019-02-18T23:49:43.423Z,100758.67
2019-02-18T23:52:13.283Z,100753.93
2019-02-18T23:54:43.226Z,100755.27
2019-02-18T23:57:13.006Z,100751.73
2019-02-18T23:59:42.911Z,100745.69
